createdAt,value
2018-09-21T00:02:21.811Z,15.00
2018-09-21T00:04:50.298Z,15.00
2018-09-21T00:07:18.477Z,15.00
2018-09-21T00:09:46.966Z,14.90
2018-09-21T00:12:15.170Z,14.90
2018-09-21T00:14:43.754Z,14.90
2018-09-21T00:17:11.935Z,14.90
2018-09-21T00:19:40.138Z,14.90
2018-09-21T00:22:08.342Z,14.90
2018-09-21T00:24:36.674Z,14.90
2018-09-21T00:27:04.974Z,14.80
2018-09-21T00:29:33.154Z,14.70
2018-09-21T00:32:02.259Z,14.70
2018-09-21T00:34:30.618Z,14.60
2018-09-21T00:36:59.133Z,14.60
2018-09-21T00:39:27.331Z,14.50
2018-09-21T00:41:55.515Z,14.50
2018-09-21T00:44:23.726Z,14.50
2018-09-21T00:46:51.926Z,14.50
2018-09-21T00:49:20.122Z,14.60
2018-09-21T00:51:48.379Z,14.70
2018-09-21T00:54:16.578Z,14.80
2018-09-21T00:56:44.902Z,14.90
2018-09-21T00:59:13.094Z,14.90
2018-09-21T01:01:41.306Z,14.80
2018-09-21T01:04:09.490Z,14.70
2018-09-21T01:06:37.659Z,14.70
2018-09-21T01:09:08.142Z,14.60
2018-09-21T01:11:36.331Z,14.50
2018-09-21T01:16:55.281Z,14.50
2018-09-21T01:19:23.471Z,14.50
2018-09-21T01:21:51.646Z,14.50
2018-09-21T01:24:19.806Z,14.40
2018-09-21T01:26:48.041Z,14.30
2018-09-21T01:29:16.766Z,14.30
2018-09-21T01:31:44.930Z,14.20
2018-09-21T01:34:13.666Z,14.10
2018-09-21T01:36:41.889Z,14.00
2018-09-21T01:39:10.838Z,14.00
2018-09-21T01:41:39.486Z,13.90
2018-09-21T01:44:08.485Z,13.90
2018-09-21T01:46:36.792Z,14.00
2018-09-21T01:49:05.030Z,14.10
2018-09-21T01:51:33.235Z,14.20
2018-09-21T01:54:01.691Z,14.20
2018-09-21T01:56:29.955Z,14.20
2018-09-21T01:58:59.969Z,14.10
2018-09-21T02:01:28.683Z,14.10
2018-09-21T02:03:56.916Z,14.00
2018-09-21T02:06:25.151Z,14.00
2018-09-21T02:08:53.338Z,13.90
2018-09-21T02:11:21.533Z,13.90
2018-09-21T02:13:50.003Z,14.00
2018-09-21T02:16:18.223Z,14.00
2018-09-21T02:18:46.434Z,14.00
2018-09-21T02:21:14.636Z,14.00
2018-09-21T02:23:42.826Z,13.90
2018-09-21T02:26:11.050Z,13.80
2018-09-21T02:28:39.278Z,13.80
2018-09-21T02:31:07.478Z,13.80
2018-09-21T02:33:35.639Z,13.80
2018-09-21T02:36:03.807Z,13.80
2018-09-21T02:38:32.568Z,13.70
2018-09-21T02:41:01.164Z,13.60
2018-09-21T02:43:29.310Z,13.50
2018-09-21T02:45:57.587Z,13.50
2018-09-21T02:48:26.306Z,13.50
2018-09-21T02:50:54.496Z,13.60
2018-09-21T02:53:22.687Z,13.60
2018-09-21T02:55:50.894Z,13.60
2018-09-21T02:58:19.082Z,13.50
2018-09-21T03:00:47.380Z,13.40
2018-09-21T03:03:15.614Z,13.30
2018-09-21T03:05:44.529Z,13.20
2018-09-21T03:08:12.754Z,13.10
2018-09-21T03:10:40.937Z,13.10
2018-09-21T03:13:09.204Z,13.10
2018-09-21T03:15:37.314Z,13.10
2018-09-21T03:18:05.562Z,13.10
2018-09-21T03:20:33.736Z,13.10
2018-09-21T03:23:01.899Z,13.10
2018-09-21T03:25:30.118Z,13.10
2018-09-21T03:27:58.291Z,13.10
2018-09-21T03:30:26.498Z,13.10
2018-09-21T03:32:54.693Z,13.00
2018-09-21T03:35:22.970Z,13.00
2018-09-21T03:37:51.122Z,12.90
2018-09-21T03:40:19.291Z,12.90
2018-09-21T03:42:47.511Z,12.90
2018-09-21T03:45:15.914Z,12.80
2018-09-21T03:47:44.122Z,12.90
2018-09-21T03:50:12.439Z,12.80
2018-09-21T03:52:40.880Z,12.90
2018-09-21T03:55:09.030Z,12.90
2018-09-21T03:57:37.224Z,12.80
2018-09-21T04:00:06.466Z,12.80
2018-09-21T04:02:34.917Z,12.80
2018-09-21T04:05:03.158Z,12.90
2018-09-21T04:07:31.482Z,12.90
2018-09-21T04:09:59.900Z,13.00
2018-09-21T04:12:28.866Z,13.10
2018-09-21T04:14:57.141Z,13.10
2018-09-21T04:17:25.361Z,13.10
2018-09-21T04:19:53.597Z,13.20
2018-09-21T04:22:21.838Z,13.20
2018-09-21T04:24:50.566Z,13.30
2018-09-21T04:27:18.753Z,13.30
2018-09-21T04:29:46.978Z,13.40
2018-09-21T04:32:15.418Z,13.50
2018-09-21T04:34:43.666Z,13.60
2018-09-21T04:37:11.847Z,13.60
2018-09-21T04:39:40.059Z,13.70
2018-09-21T04:42:08.270Z,13.70
2018-09-21T04:44:36.441Z,13.80
2018-09-21T04:47:04.874Z,13.80
2018-09-21T04:49:33.071Z,13.80
2018-09-21T04:52:01.271Z,13.80
2018-09-21T04:54:29.461Z,13.80
2018-09-21T04:56:57.631Z,13.70
2018-09-21T04:59:25.849Z,13.70
2018-09-21T05:01:53.994Z,13.70
2018-09-21T05:04:22.194Z,13.80
2018-09-21T05:06:50.383Z,13.80
2018-09-21T05:09:18.622Z,13.90
2018-09-21T05:11:46.824Z,14.00
2018-09-21T05:14:15.398Z,14.00
2018-09-21T05:16:43.617Z,14.10
2018-09-21T05:19:11.802Z,14.00
2018-09-21T05:21:40.021Z,14.10
2018-09-21T05:24:08.562Z,14.10
2018-09-21T05:26:37.050Z,14.10
2018-09-21T05:29:05.645Z,14.00
2018-09-21T05:31:33.846Z,14.00
2018-09-21T05:34:02.101Z,14.00
2018-09-21T05:36:30.291Z,14.10
2018-09-21T05:38:58.539Z,14.00
2018-09-21T05:41:26.742Z,14.20
2018-09-21T05:43:54.983Z,14.20
2018-09-21T05:46:23.782Z,14.30
2018-09-21T05:48:51.970Z,14.50
2018-09-21T05:51:20.261Z,14.60
2018-09-21T05:53:48.455Z,14.70
2018-09-21T05:56:16.679Z,14.90
2018-09-21T05:58:44.871Z,15.00
2018-09-21T06:01:13.034Z,15.10
2018-09-21T06:03:41.223Z,15.30
2018-09-21T06:06:09.409Z,15.50
2018-09-21T06:08:37.591Z,15.80
2018-09-21T06:11:05.820Z,16.10
2018-09-21T06:13:34.083Z,16.30
2018-09-21T06:16:02.250Z,16.70
2018-09-21T06:18:30.458Z,17.40
2018-09-21T06:20:58.679Z,18.40
2018-09-21T06:23:27.323Z,19.20
2018-09-21T06:25:55.537Z,19.80
2018-09-21T06:28:23.835Z,20.30
2018-09-21T06:30:52.027Z,20.80
2018-09-21T06:33:20.237Z,20.90
2018-09-21T06:35:48.464Z,20.90
2018-09-21T06:38:16.922Z,20.60
2018-09-21T06:40:45.965Z,20.20
2018-09-21T06:43:14.146Z,19.90
2018-09-21T06:45:42.327Z,19.60
2018-09-21T06:48:10.495Z,19.30
2018-09-21T06:50:38.698Z,19.20
2018-09-21T06:53:06.934Z,19.20
2018-09-21T06:55:35.108Z,19.20
2018-09-21T06:58:03.265Z,19.30
2018-09-21T07:00:31.493Z,19.50
2018-09-21T07:02:59.954Z,19.80
2018-09-21T07:05:28.159Z,20.00
2018-09-21T07:07:56.347Z,20.30
2018-09-21T07:10:24.986Z,20.60
2018-09-21T07:12:53.594Z,20.90
2018-09-21T07:15:21.827Z,20.90
2018-09-21T07:17:50.110Z,20.80
2018-09-21T07:20:18.275Z,20.60
2018-09-21T07:22:46.661Z,20.40
2018-09-21T07:25:14.790Z,20.10
2018-09-21T07:27:42.974Z,19.90
2018-09-21T07:30:11.149Z,19.70
2018-09-21T07:32:39.407Z,19.60
2018-09-21T07:35:07.964Z,19.50
2018-09-21T07:37:36.222Z,19.50
2018-09-21T07:40:04.754Z,19.60
2018-09-21T07:42:32.958Z,19.70
2018-09-21T07:45:01.134Z,19.70
2018-09-21T07:47:29.352Z,19.80
2018-09-21T07:49:57.570Z,19.90
2018-09-21T07:52:25.754Z,20.00
2018-09-21T07:54:53.950Z,20.00
2018-09-21T07:57:22.170Z,20.10
2018-09-21T07:59:50.354Z,20.40
2018-09-21T08:02:18.510Z,20.60
2018-09-21T08:04:46.798Z,20.90
2018-09-21T08:07:15.053Z,21.10
2018-09-21T08:09:43.210Z,21.30
2018-09-21T08:12:11.477Z,21.60
2018-09-21T08:14:40.403Z,21.80
2018-09-21T08:17:08.639Z,21.80
2018-09-21T08:19:37.736Z,21.70
2018-09-21T08:22:05.900Z,21.80
2018-09-21T08:24:34.110Z,21.80
2018-09-21T08:27:02.305Z,22.00
2018-09-21T08:29:30.735Z,21.90
2018-09-21T08:31:59.119Z,22.00
2018-09-21T08:34:27.330Z,22.00
2018-09-21T08:36:55.790Z,22.00
2018-09-21T08:39:23.974Z,22.00
2018-09-21T08:41:53.257Z,21.90
2018-09-21T08:44:21.420Z,21.80
2018-09-21T08:46:49.586Z,21.80
2018-09-21T08:49:18.305Z,21.80
2018-09-21T08:51:46.470Z,21.80
2018-09-21T08:54:14.879Z,21.80
2018-09-21T08:56:43.042Z,21.90
2018-09-21T08:59:11.226Z,21.80
2018-09-21T09:01:39.466Z,21.80
2018-09-21T09:04:07.828Z,21.90
2018-09-21T09:06:36.080Z,21.90
2018-09-21T09:09:07.002Z,22.00
2018-09-21T09:11:36.290Z,22.00
2018-09-21T09:14:04.498Z,22.10
2018-09-21T09:16:32.696Z,22.10
2018-09-21T09:19:00.856Z,22.10
2018-09-21T09:21:29.090Z,22.10
2018-09-21T09:23:57.323Z,22.20
2018-09-21T09:26:25.570Z,22.30
2018-09-21T09:28:53.750Z,22.30
2018-09-21T09:31:21.926Z,22.40
2018-09-21T09:33:50.142Z,22.40
2018-09-21T09:36:18.434Z,22.40
2018-09-21T09:38:46.794Z,22.40
2018-09-21T09:41:14.973Z,22.40
2018-09-21T09:43:43.189Z,22.50
2018-09-21T09:46:11.351Z,22.70
2018-09-21T09:48:39.558Z,22.80
2018-09-21T09:51:08.094Z,22.80
2018-09-21T09:53:36.643Z,22.80
2018-09-21T09:56:04.806Z,22.90
2018-09-21T09:58:33.070Z,22.90
2018-09-21T10:01:01.525Z,23.00
2018-09-21T10:03:29.860Z,23.00
2018-09-21T10:05:58.014Z,23.00
2018-09-21T10:08:26.205Z,23.10
2018-09-21T10:10:54.398Z,23.20
2018-09-21T10:13:22.598Z,23.50
2018-09-21T10:15:50.778Z,23.50
2018-09-21T10:18:18.998Z,23.40
2018-09-21T10:20:47.277Z,23.40
2018-09-21T10:23:15.436Z,23.20
2018-09-21T10:25:43.636Z,23.10
2018-09-21T10:28:11.966Z,23.00
2018-09-21T10:30:39.999Z,22.80
2018-09-21T10:33:08.305Z,22.80
2018-09-21T10:35:36.395Z,22.70
2018-09-21T10:38:04.563Z,22.80
2018-09-21T10:40:32.989Z,23.00
2018-09-21T10:43:04.527Z,23.00
2018-09-21T10:45:32.703Z,23.10
2018-09-21T10:48:00.882Z,23.10
2018-09-21T10:50:29.095Z,23.10
2018-09-21T10:52:57.317Z,23.00
2018-09-21T10:55:25.498Z,23.00
2018-09-21T10:57:53.650Z,23.00
2018-09-21T11:00:21.843Z,23.00
2018-09-21T11:02:50.034Z,23.00
2018-09-21T11:05:18.234Z,23.00
2018-09-21T11:07:46.746Z,23.00
2018-09-21T11:10:14.922Z,22.90
2018-09-21T11:12:43.070Z,22.90
2018-09-21T11:15:11.265Z,22.90
2018-09-21T11:17:40.403Z,22.90
2018-09-21T11:20:08.566Z,23.00
2018-09-21T11:22:36.762Z,23.00
2018-09-21T11:25:04.954Z,23.10
2018-09-21T11:27:33.142Z,23.10
2018-09-21T11:30:01.547Z,23.10
2018-09-21T11:32:29.823Z,23.30
2018-09-21T11:34:58.026Z,23.30
2018-09-21T11:37:26.302Z,23.30
2018-09-21T11:39:54.594Z,23.20
2018-09-21T11:42:22.807Z,23.20
2018-09-21T11:44:51.343Z,23.10
2018-09-21T11:47:19.638Z,23.10
2018-09-21T11:49:47.730Z,23.20
2018-09-21T11:52:15.983Z,23.20
2018-09-21T11:54:44.162Z,23.30
2018-09-21T11:57:18.826Z,23.30
2018-09-21T11:59:47.038Z,23.20
2018-09-21T12:02:15.978Z,23.10
2018-09-21T12:04:44.166Z,23.00
2018-09-21T12:07:13.852Z,23.00
2018-09-21T12:09:42.062Z,23.00
2018-09-21T12:12:10.334Z,22.90
2018-09-21T12:14:38.505Z,22.80
2018-09-21T12:17:06.931Z,22.70
2018-09-21T12:19:35.006Z,22.60
2018-09-21T12:22:03.272Z,22.60
2018-09-21T12:24:31.477Z,22.60
2018-09-21T12:26:59.882Z,22.50
2018-09-21T12:29:28.058Z,22.30
2018-09-21T12:31:56.286Z,22.10
2018-09-21T12:34:24.531Z,22.00
2018-09-21T12:36:52.991Z,21.60
2018-09-21T12:39:21.194Z,21.40
2018-09-21T12:41:49.409Z,21.30
2018-09-21T12:44:18.148Z,21.30
2018-09-21T12:46:46.326Z,21.40
2018-09-21T12:49:14.514Z,21.30
2018-09-21T12:51:43.202Z,21.30
2018-09-21T12:54:11.406Z,21.20
2018-09-21T12:56:39.671Z,21.00
2018-09-21T12:59:07.840Z,20.80
2018-09-21T13:01:36.026Z,20.60
2018-09-21T13:04:05.048Z,20.50
2018-09-21T13:06:33.642Z,20.50
2018-09-21T13:09:01.948Z,20.50
2018-09-21T13:11:30.118Z,20.70
2018-09-21T13:13:58.280Z,20.60
2018-09-21T13:16:26.482Z,19.50
2018-09-21T13:18:54.674Z,18.10
2018-09-21T13:21:22.854Z,16.80
2018-09-21T13:23:51.023Z,15.90
2018-09-21T13:26:19.265Z,15.40
2018-09-21T13:28:48.303Z,14.90
2018-09-21T13:31:20.490Z,14.60
2018-09-21T13:33:48.714Z,14.30
2018-09-21T13:36:16.870Z,14.20
2018-09-21T13:38:45.400Z,14.00
2018-09-21T13:41:13.597Z,13.90
2018-09-21T13:43:41.802Z,13.80
2018-09-21T13:46:09.994Z,13.70
2018-09-21T13:48:38.526Z,13.70
2018-09-21T13:51:06.977Z,13.70
2018-09-21T13:53:35.162Z,13.80
2018-09-21T13:56:03.362Z,13.80
2018-09-21T13:58:31.751Z,13.80
2018-09-21T14:00:59.956Z,13.80
2018-09-21T14:03:28.134Z,13.80
2018-09-21T14:05:56.659Z,13.70
2018-09-21T14:08:24.547Z,13.60
2018-09-21T14:10:52.843Z,13.60
2018-09-21T14:13:21.490Z,13.50
2018-09-21T14:15:49.683Z,13.50
2018-09-21T14:18:17.882Z,13.50
2018-09-21T14:20:46.077Z,13.40
2018-09-21T14:23:14.305Z,13.40
2018-09-21T14:25:42.510Z,13.40
2018-09-21T14:28:10.721Z,13.30
2018-09-21T14:30:38.994Z,13.30
2018-09-21T14:33:07.306Z,13.20
2018-09-21T14:35:35.483Z,13.20
2018-09-21T14:38:03.702Z,13.10
2018-09-21T14:40:31.906Z,13.10
2018-09-21T14:43:00.138Z,13.10
2018-09-21T14:45:28.301Z,13.10
2018-09-21T14:47:57.395Z,13.10
2018-09-21T14:50:25.966Z,13.20
2018-09-21T14:52:54.562Z,13.30
2018-09-21T14:55:23.250Z,13.40
2018-09-21T14:57:51.422Z,13.50
2018-09-21T15:00:19.888Z,13.60
2018-09-21T15:02:48.014Z,13.80
2018-09-21T15:05:16.393Z,13.90
2018-09-21T15:07:44.569Z,14.10
2018-09-21T15:10:12.806Z,14.20
2018-09-21T15:12:43.741Z,14.30
2018-09-21T15:15:11.960Z,14.60
2018-09-21T15:17:40.346Z,14.80
2018-09-21T15:20:08.612Z,15.20
2018-09-21T15:22:37.706Z,15.60
2018-09-21T15:25:09.486Z,15.90
2018-09-21T15:27:37.710Z,15.90
2018-09-21T15:30:05.979Z,16.00
2018-09-21T15:32:34.174Z,16.00
2018-09-21T15:35:02.354Z,16.30
2018-09-21T15:37:30.786Z,16.70
2018-09-21T15:39:59.186Z,17.20
2018-09-21T15:42:27.372Z,18.20
2018-09-21T15:44:55.592Z,19.10
2018-09-21T15:47:23.799Z,20.10
2018-09-21T15:49:51.978Z,20.50
2018-09-21T15:52:20.578Z,20.80
2018-09-21T15:54:48.782Z,20.50
2018-09-21T15:57:16.938Z,19.80
2018-09-21T15:59:45.326Z,19.70
2018-09-21T16:02:13.498Z,20.10
2018-09-21T16:04:41.678Z,20.00
2018-09-21T16:07:10.692Z,19.70
2018-09-21T16:09:39.359Z,20.00
2018-09-21T16:12:07.550Z,20.70
2018-09-21T16:14:35.754Z,20.20
2018-09-21T16:17:03.959Z,19.20
2018-09-21T16:19:32.183Z,18.30
2018-09-21T16:22:00.362Z,17.40
2018-09-21T16:24:28.546Z,16.60
2018-09-21T16:26:56.746Z,15.90
2018-09-21T16:29:24.944Z,15.40
2018-09-21T16:31:53.138Z,15.10
2018-09-21T16:34:21.354Z,14.90
2018-09-21T16:36:49.900Z,14.80
2018-09-21T16:39:18.177Z,14.70
2018-09-21T16:41:46.301Z,14.70
2018-09-21T16:44:14.514Z,14.60
2018-09-21T16:46:42.662Z,14.60
2018-09-21T16:49:11.590Z,14.50
2018-09-21T16:51:39.799Z,14.50
2018-09-21T16:54:08.023Z,14.40
2018-09-21T16:56:39.219Z,14.20
2018-09-21T16:59:07.414Z,14.20
2018-09-21T17:01:35.618Z,14.20
2018-09-21T17:04:03.824Z,14.20
2018-09-21T17:06:31.990Z,14.20
2018-09-21T17:09:00.331Z,14.20
2018-09-21T17:11:28.587Z,14.20
2018-09-21T17:13:56.784Z,14.20
2018-09-21T17:16:24.926Z,14.10
2018-09-21T17:18:53.201Z,14.10
2018-09-21T17:21:21.377Z,14.10
2018-09-21T17:23:49.542Z,14.00
2018-09-21T17:26:17.718Z,14.00
2018-09-21T17:28:46.270Z,13.90
2018-09-21T17:31:15.653Z,13.90
2018-09-21T17:33:43.837Z,13.90
2018-09-21T17:36:11.984Z,13.80
2018-09-21T17:38:40.166Z,13.70
2018-09-21T17:41:08.794Z,13.70
2018-09-21T17:43:36.966Z,13.60
2018-09-21T17:46:05.146Z,13.60
2018-09-21T17:48:33.382Z,13.60
2018-09-21T17:51:01.543Z,13.50
2018-09-21T17:53:30.474Z,13.50
2018-09-21T17:56:00.673Z,13.40
2018-09-21T17:58:29.013Z,13.40
2018-09-21T18:00:57.216Z,13.40
2018-09-21T18:03:25.406Z,13.40
2018-09-21T18:05:53.550Z,13.40
2018-09-21T18:08:21.776Z,13.50
2018-09-21T18:10:49.974Z,13.60
2018-09-21T18:13:18.338Z,13.60
2018-09-21T18:15:46.556Z,13.60
2018-09-21T18:18:14.726Z,13.60
2018-09-21T18:20:42.918Z,13.60
2018-09-21T18:23:11.083Z,13.60
2018-09-21T18:25:39.744Z,13.60
2018-09-21T18:28:07.882Z,13.60
2018-09-21T18:30:36.101Z,13.50
2018-09-21T18:33:04.294Z,13.40
2018-09-21T18:35:32.494Z,13.30
2018-09-21T18:38:00.710Z,13.30
2018-09-21T18:40:28.886Z,13.20
2018-09-21T18:42:58.662Z,13.10
2018-09-21T18:45:26.901Z,13.00
2018-09-21T18:47:55.126Z,12.90
2018-09-21T18:50:23.305Z,12.80
2018-09-21T18:52:51.867Z,12.70
2018-09-21T18:55:20.113Z,12.70
2018-09-21T18:57:48.286Z,12.70
2018-09-21T19:00:16.629Z,12.60
2018-09-21T19:02:44.974Z,12.60
2018-09-21T19:05:13.190Z,12.70
2018-09-21T19:07:41.422Z,12.70
2018-09-21T19:10:09.777Z,12.70
2018-09-21T19:12:38.007Z,12.60
2018-09-21T19:15:06.250Z,12.50
2018-09-21T19:17:35.014Z,12.40
2018-09-21T19:20:03.354Z,12.30
2018-09-21T19:22:31.542Z,12.10
2018-09-21T19:25:00.290Z,12.00
2018-09-21T19:27:28.492Z,11.80
2018-09-21T19:29:56.715Z,11.70
2018-09-21T19:32:24.943Z,11.60
2018-09-21T19:34:53.190Z,11.50
2018-09-21T19:37:21.417Z,11.40
2018-09-21T19:39:49.650Z,11.30
2018-09-21T19:42:17.835Z,11.20
2018-09-21T19:44:46.108Z,11.10
2018-09-21T19:47:14.275Z,11.10
2018-09-21T19:49:42.476Z,11.10
2018-09-21T19:52:10.646Z,11.00
2018-09-21T19:54:38.836Z,11.00
2018-09-21T19:57:07.038Z,11.00
2018-09-21T19:59:35.902Z,11.00
2018-09-21T20:02:04.039Z,11.00
2018-09-21T20:04:33.094Z,11.10
2018-09-21T20:07:01.554Z,11.00
2018-09-21T20:09:30.018Z,11.00
2018-09-21T20:11:58.204Z,11.00
2018-09-21T20:14:26.407Z,11.00
2018-09-21T20:16:54.637Z,11.00
2018-09-21T20:19:22.798Z,11.10
2018-09-21T20:21:51.034Z,11.20
2018-09-21T20:24:19.226Z,11.20
2018-09-21T20:26:47.414Z,11.20
2018-09-21T20:29:15.682Z,11.30
2018-09-21T20:31:49.406Z,11.30
2018-09-21T20:34:17.684Z,11.40
2018-09-21T20:36:45.983Z,11.50
2018-09-21T20:39:14.195Z,11.50
2018-09-21T20:41:42.470Z,11.40
2018-09-21T20:44:10.640Z,11.50
2018-09-21T20:46:40.433Z,11.60
2018-09-21T20:49:08.686Z,11.60
2018-09-21T20:51:36.866Z,11.60
2018-09-21T20:54:05.014Z,11.60
2018-09-21T20:56:35.066Z,11.70
2018-09-21T20:59:03.279Z,11.70
2018-09-21T21:01:31.484Z,11.70
2018-09-21T21:03:59.822Z,11.70
2018-09-21T21:06:28.006Z,11.70
2018-09-21T21:08:56.183Z,11.60
2018-09-21T21:11:24.351Z,11.50
2018-09-21T21:13:54.178Z,11.40
2018-09-21T21:16:22.380Z,11.40
2018-09-21T21:18:50.592Z,11.30
2018-09-21T21:21:19.111Z,11.30
2018-09-21T21:23:47.306Z,11.30
2018-09-21T21:26:15.521Z,11.20
2018-09-21T21:28:43.747Z,11.20
2018-09-21T21:31:11.942Z,11.30
2018-09-21T21:33:40.091Z,11.20
2018-09-21T21:36:08.303Z,11.30
2018-09-21T21:38:36.586Z,11.40
2018-09-21T21:41:04.797Z,11.40
2018-09-21T21:43:33.482Z,11.40
2018-09-21T21:46:01.724Z,11.40
2018-09-21T21:48:29.934Z,11.30
2018-09-21T21:50:58.165Z,11.20
2018-09-21T21:53:26.339Z,11.10
2018-09-21T21:55:54.563Z,11.00
2018-09-21T21:58:22.759Z,10.90
2018-09-21T22:01:54.064Z,10.80
2018-09-21T22:04:22.291Z,10.60
2018-09-21T22:06:50.883Z,10.50
2018-09-21T22:09:19.086Z,10.40
2018-09-21T22:11:52.736Z,10.30
2018-09-21T22:14:20.923Z,10.30
2018-09-21T22:16:49.122Z,10.10
2018-09-21T22:19:17.302Z,10.10
2018-09-21T22:21:45.473Z,10.00
2018-09-21T22:24:13.626Z,10.00
2018-09-21T22:26:41.814Z,10.00
2018-09-21T22:29:10.658Z,10.00
2018-09-21T22:31:38.810Z,10.00
2018-09-21T22:34:07.016Z,10.00
2018-09-21T22:36:35.194Z,10.10
2018-09-21T22:39:03.693Z,10.30
2018-09-21T22:41:31.886Z,10.50
2018-09-21T22:44:00.222Z,10.60
2018-09-21T22:46:28.422Z,10.70
2018-09-21T22:48:57.028Z,10.80
2018-09-21T22:51:25.254Z,10.80
2018-09-21T22:53:53.462Z,10.80
2018-09-21T22:56:21.917Z,10.90
2018-09-21T22:58:50.108Z,10.90
2018-09-21T23:01:18.261Z,11.00
2018-09-21T23:03:46.682Z,11.10
2018-09-21T23:06:14.894Z,11.10
2018-09-21T23:08:43.125Z,11.00
2018-09-21T23:11:11.301Z,10.90
2018-09-21T23:13:39.437Z,10.90
2018-09-21T23:16:07.653Z,10.80
2018-09-21T23:18:36.171Z,10.90
2018-09-21T23:21:04.347Z,10.90
2018-09-21T23:23:32.549Z,10.80
2018-09-21T23:26:01.024Z,10.80
2018-09-21T23:28:29.209Z,10.90
2018-09-21T23:30:58.322Z,10.90
2018-09-21T23:33:26.511Z,10.90
2018-09-21T23:35:54.686Z,10.90
2018-09-21T23:38:22.890Z,10.90
2018-09-21T23:40:51.078Z,10.80
2018-09-21T23:43:19.254Z,10.80
2018-09-21T23:45:47.460Z,10.70
2018-09-21T23:48:15.662Z,10.70
2018-09-21T23:50:43.841Z,10.60
2018-09-21T23:53:12.383Z,10.50
2018-09-21T23:55:40.625Z,10.40
2018-09-21T23:58:08.820Z,10.30
